Time;durP1;ratioP1;P1;durP2;ratioP2;P2;SDS_P1;SDS_P2;PMS_P1;PMS_P2;Temp;Humidity;BMP_temperature;BMP_pressure;BME280_temperature;BME280_humidity;BME280_pressure;Samples;Min_cycle;Max_cycle;Signal;HPM_P1;HPM_P2
2022/01/24 00:00:04;;;;;;;;;;;2.50;99.90;3.30;100956.00;;;;335839;28;91747;-91
2022/01/24 00:00:17;;;;;;;;;;;2.50;99.90;3.20;100950.00;;;;336491;28;83201;-91
2022/01/24 00:00:28;;;;;;;;;;;2.60;99.90;3.30;100951.00;;;;336058;28;91614;-91
2022/01/24 00:00:40;;;;;;;;;;;2.60;99.90;3.20;100943.00;;;;346713;28;83410;-91
2022/01/24 00:00:52;;;;;;;;;;;2.60;99.90;3.20;100952.00;;;;344354;28;91690;-91
2022/01/24 00:01:05;;;;;;;;;;;2.60;99.90;3.30;100957.00;;;;344655;28;83548;-91
2022/01/24 00:01:17;;;;;;;;;;;2.60;99.90;3.30;100952.00;;;;344381;28;91370;-91
2022/01/24 00:01:29;;;;;;;;;;;2.60;99.90;3.20;100945.00;;;;339692;28;82620;-91
2022/01/24 00:01:42;;;;;;;;;;;2.60;99.90;3.20;100944.00;;;;337463;28;92246;-91
2022/01/24 00:01:56;;;;;;;;;;;2.60;99.90;3.20;100951.00;;;;337937;28;83385;-91
2022/01/24 00:02:08;;;;;;;;;;;2.60;99.90;3.20;100954.00;;;;339935;28;91535;-90
2022/01/24 00:02:20;;;;;;;;;;;2.60;99.90;3.20;100954.00;;;;337963;28;82456;-91
2022/01/24 00:02:32;;;;;;;;;;;2.60;99.90;3.20;100948.00;;;;337151;28;91636;-91
2022/01/24 00:02:44;;;;;;;;;;;2.60;99.90;3.20;100959.00;;;;340521;28;83468;-91
2022/01/24 00:02:56;;;;;;;;;;;2.60;99.90;3.20;100957.00;;;;337421;28;89278;-91
2022/01/24 00:03:08;;;;;;;;;;;2.60;99.90;3.20;100954.00;;;;337772;28;83536;-91
2022/01/24 00:03:20;;;;;;;;;;;2.60;99.90;3.30;100959.00;;;;340194;28;88991;-91
2022/01/24 00:03:31;;;;;;;;;;;2.60;99.90;3.30;100956.00;;;;336675;28;83419;-91
2022/01/24 00:03:43;;;;;;;;;;;2.60;99.90;3.30;100956.00;;;;338309;28;91319;-91
2022/01/24 00:03:59;;;;;;;;;;;2.60;99.90;3.40;100957.00;;;;347574;28;83369;-91
2022/01/24 00:04:11;;;;;;;;;;;2.60;99.90;3.40;100964.00;;;;348482;27;91111;-90
2022/01/24 00:04:23;;;;;;;;;;;2.60;99.90;3.50;100954.00;;;;340547;28;83175;-91
2022/01/24 00:04:36;;;;;;;;;;;2.60;99.90;3.40;100956.00;;;;345766;28;91136;-91
2022/01/24 00:04:49;;;;;;;;;;;2.60;99.90;3.40;100960.00;;;;343325;28;83556;-91
2022/01/24 00:05:01;;;;;;;;;;;2.60;99.90;3.30;100954.00;;;;344426;28;88087;-91
2022/01/24 00:05:13;;;;;;;;;;;2.70;99.90;3.30;100963.00;;;;346103;28;82336;-91
2022/01/24 00:05:25;;;;;;;;;;;2.60;99.90;3.30;100968.00;;;;338697;28;90022;-91
2022/01/24 00:05:37;;;;;;;;;;;2.60;99.90;3.20;100956.00;;;;344775;28;82327;-90
2022/01/24 00:05:50;;;;;;;;;;;2.60;99.90;3.20;100953.00;;;;344366;28;92612;-91
2022/01/24 00:06:02;;;;;;;;;;;2.60;99.90;3.10;100955.00;;;;344790;28;82304;-90
2022/01/24 00:06:16;;;;;;;;;;;2.60;99.90;3.10;100957.00;;;;345571;28;90395;-91
2022/01/24 00:06:28;;;;;;;;;;;2.60;99.90;3.00;100956.00;;;;338475;28;82416;-91
2022/01/24 00:06:40;;;;;;;;;;;2.60;99.90;3.00;100963.00;;;;349944;27;90848;-90
2022/01/24 00:06:52;;;;;;;;;;;2.60;99.90;3.10;100953.00;;;;347377;28;82584;-91
2022/01/24 00:07:05;;;;;;;;;;;2.60;99.90;3.10;100954.00;;;;345706;28;91172;-91
2022/01/24 00:07:20;;;;;;;;;;;2.60;99.90;3.10;100955.00;;;;344683;28;82328;-91
2022/01/24 00:07:32;;;;;;;;;;;2.60;99.90;3.10;100963.00;;;;336126;28;91349;-91
2022/01/24 00:07:44;;;;;;;;;;;2.60;99.90;3.10;100957.00;;;;339128;28;83330;-90
2022/01/24 00:07:56;;;;;;;;;;;2.60;99.90;3.10;100964.00;;;;336033;28;92031;-91
2022/01/24 00:08:08;;;;;;;;;;;2.60;99.90;3.00;100957.00;;;;338998;28;83524;-91
2022/01/24 00:08:21;;;;;;;;;;;2.60;99.90;3.00;100954.00;;;;337468;28;91732;-90
2022/01/24 00:08:33;;;;;;;;;;;2.60;99.90;3.00;100948.00;;;;337930;28;82553;-91
2022/01/24 00:08:45;;;;;;;;;;;2.60;99.90;3.00;100954.00;;;;340010;28;91341;-91
2022/01/24 00:08:58;;;;;;;;;;;2.60;99.90;3.10;100955.00;;;;336546;28;83380;-91
2022/01/24 00:09:11;;;;;;;;;;;2.50;99.90;3.10;100957.00;;;;338668;28;90357;-90
2022/01/24 00:09:23;;;;;;;;;;;2.60;99.90;3.10;100963.00;;;;337889;28;82420;-91
2022/01/24 00:09:37;;;;;;;;;;;2.50;99.90;3.10;100956.00;;;;345239;28;91147;-91
2022/01/24 00:09:51;;;;;;;;;;;2.60;99.90;3.10;100960.00;;;;345789;28;83330;-90
2022/01/24 00:10:06;;;;;;;;;;;2.50;99.90;3.10;100953.00;;;;337475;28;92320;-91
2022/01/24 00:10:22;;;;;;;;;;;2.50;99.90;3.00;100956.00;;;;346141;28;82268;-91
2022/01/24 00:10:36;;;;;;;;;;;2.50;99.90;3.00;100953.00;;;;347202;28;89135;-91
2022/01/24 00:10:50;;;;;;;;;;;2.50;99.90;3.00;100954.00;;;;337773;28;82422;-91
2022/01/24 00:11:08;;;;;;;;;;;2.50;99.90;3.00;100954.00;;;;347194;28;90098;-91
2022/01/24 00:11:25;;;;;;;;;;;2.50;99.90;3.00;100961.00;;;;343221;28;83413;-90
2022/01/24 00:11:59;;;;;;;;;;;2.50;99.90;3.00;100953.00;;;;344392;28;89310;-91
2022/01/24 00:12:19;;;;;;;;;;;2.50;99.90;3.00;100956.00;;;;344329;28;83395;-91
2022/01/24 00:13:08;;;;;;;;;;;2.50;99.90;3.10;100956.00;;;;343340;28;83484;-91
2022/01/24 00:15:19;;;;;;;;;;;2.50;99.90;3.00;100957.00;;;;339084;28;83366;-90
2022/01/24 00:16:14;;;;;;;;;;;2.50;99.90;3.00;100959.00;;;;344199;28;82555;-90
2022/01/24 00:16:58;;;;;;;;;;;2.50;99.90;3.00;100956.00;;;;336017;28;91488;-91
2022/01/24 00:17:51;;;;;;;;;;;2.40;99.90;3.00;100958.00;;;;337358;28;90585;-91
2022/01/24 00:18:09;;;;;;;;;;;2.40;99.90;3.00;100957.00;;;;339132;28;82437;-91
2022/01/24 00:26:40;;;;;;;;;;;2.40;99.90;3.00;100958.00;;;;335946;28;91677;-91
2022/01/24 00:26:56;;;;;;;;;;;2.40;99.90;2.90;100949.00;;;;345720;28;90865;-91
2022/01/24 00:27:07;;;;;;;;;;;2.40;99.90;3.00;100955.00;;;;344764;28;83425;-91
2022/01/24 00:27:19;;;;;;;;;;;2.40;99.90;3.10;100950.00;;;;342830;28;91419;-91
2022/01/24 00:27:31;;;;;;;;;;;2.40;99.90;3.20;100950.00;;;;346296;28;83580;-91
2022/01/24 00:27:43;;;;;;;;;;;2.40;99.90;3.20;100956.00;;;;344590;28;90868;-91
2022/01/24 00:27:55;;;;;;;;;;;2.40;99.90;3.30;100957.00;;;;339137;28;82380;-91
2022/01/24 00:28:06;;;;;;;;;;;2.40;99.90;3.20;100946.00;;;;337375;28;90092;-91
2022/01/24 00:28:20;;;;;;;;;;;2.50;99.90;3.20;100940.00;;;;337803;28;83428;-91
2022/01/24 00:28:32;;;;;;;;;;;2.40;99.90;3.20;100953.00;;;;338573;28;91091;-90
2022/01/24 00:28:44;;;;;;;;;;;2.50;99.90;3.10;100950.00;;;;344737;28;83277;-91
2022/01/24 00:28:56;;;;;;;;;;;2.50;99.90;3.10;100949.00;;;;347148;28;90959;-91
2022/01/24 00:29:07;;;;;;;;;;;2.50;99.90;3.10;100952.00;;;;340524;28;82401;-91
2022/01/24 00:29:20;;;;;;;;;;;2.40;99.90;3.00;100957.00;;;;338732;28;91305;-91
2022/01/24 00:29:32;;;;;;;;;;;2.50;99.90;3.00;100953.00;;;;339114;28;83422;-91
2022/01/24 00:29:44;;;;;;;;;;;2.40;99.90;3.10;100948.00;;;;345792;28;90180;-91
2022/01/24 00:29:55;;;;;;;;;;;2.50;99.90;3.10;100945.00;;;;346137;28;83383;-91
2022/01/24 00:30:07;;;;;;;;;;;2.40;99.90;3.10;100958.00;;;;339729;28;91279;-90
2022/01/24 00:30:19;;;;;;;;;;;2.40;99.90;3.00;100956.00;;;;346010;28;83853;-91
2022/01/24 00:30:31;;;;;;;;;;;2.50;99.90;3.00;100949.00;;;;344305;28;91364;-91
2022/01/24 00:30:43;;;;;;;;;;;2.40;99.90;3.00;100956.00;;;;339976;28;83572;-91
2022/01/24 00:30:55;;;;;;;;;;;2.40;99.90;3.00;100953.00;;;;338243;28;90795;-91
2022/01/24 00:31:07;;;;;;;;;;;2.40;99.90;3.00;100959.00;;;;339139;28;83301;-91
2022/01/24 00:31:18;;;;;;;;;;;2.40;99.90;3.00;100956.00;;;;338797;28;89327;-91
2022/01/24 00:31:30;;;;;;;;;;;2.40;99.90;3.00;100964.00;;;;340377;28;83425;-91
2022/01/24 00:31:42;;;;;;;;;;;2.40;99.90;3.00;100955.00;;;;347121;28;89791;-90
2022/01/24 00:31:54;;;;;;;;;;;2.40;99.90;3.00;100959.00;;;;346244;28;82372;-91
2022/01/24 00:32:07;;;;;;;;;;;2.40;99.90;3.00;100961.00;;;;345562;28;91492;-91
2022/01/24 00:32:18;;;;;;;;;;;2.40;99.90;3.00;100958.00;;;;347591;28;83347;-90
2022/01/24 00:32:30;;;;;;;;;;;2.40;99.90;3.00;100955.00;;;;335971;28;91812;-91
2022/01/24 00:32:42;;;;;;;;;;;2.40;99.90;3.00;100962.00;;;;337796;28;82267;-91
2022/01/24 00:32:54;;;;;;;;;;;2.40;99.90;3.00;100954.00;;;;345740;28;87977;-90
2022/01/24 00:33:05;;;;;;;;;;;2.40;99.90;3.10;100958.00;;;;346168;28;83428;-91
2022/01/24 00:33:20;;;;;;;;;;;2.40;99.90;3.10;100951.00;;;;340085;28;91369;-91
2022/01/24 00:33:32;;;;;;;;;;;2.40;99.90;3.10;100951.00;;;;346789;27;83508;-91
2022/01/24 00:33:44;;;;;;;;;;;2.40;99.90;3.00;100951.00;;;;344233;28;90655;-90
2022/01/24 00:33:55;;;;;;;;;;;2.40;99.90;3.10;100959.00;;;;337323;28;82262;-91
2022/01/24 00:34:07;;;;;;;;;;;2.40;99.90;3.20;100956.00;;;;337334;28;91458;-91
2022/01/24 00:34:19;;;;;;;;;;;2.40;99.90;3.10;100955.00;;;;339213;28;83119;-91
2022/01/24 00:34:32;;;;;;;;;;;2.40;99.90;3.00;100962.00;;;;338141;28;91146;-90
2022/01/24 00:34:43;;;;;;;;;;;2.50;99.90;3.00;100961.00;;;;347450;28;84212;-91
2022/01/24 00:34:55;;;;;;;;;;;2.40;99.90;3.00;100957.00;;;;347090;28;91562;-90
2022/01/24 00:35:07;;;;;;;;;;;2.40;99.90;3.00;100949.00;;;;336513;28;83198;-91
2022/01/24 00:35:19;;;;;;;;;;;2.50;99.90;2.90;100948.00;;;;344287;28;91600;-90
2022/01/24 00:35:31;;;;;;;;;;;2.50;99.90;2.90;100950.00;;;;346151;28;82583;-91
2022/01/24 00:35:43;;;;;;;;;;;2.50;99.90;3.00;100955.00;;;;347048;28;90887;-90
2022/01/24 00:35:55;;;;;;;;;;;2.50;99.90;3.00;100958.00;;;;346236;28;83327;-91
2022/01/24 00:36:06;;;;;;;;;;;2.50;99.90;2.90;100958.00;;;;338733;28;91200;-90
2022/01/24 00:36:18;;;;;;;;;;;2.40;99.90;2.90;100954.00;;;;340371;28;83387;-91
2022/01/24 00:36:30;;;;;;;;;;;2.40;99.90;2.90;100957.00;;;;339012;28;91385;-90
2022/01/24 00:36:44;;;;;;;;;;;2.50;99.90;2.90;100955.00;;;;345980;28;83574;-91
2022/01/24 00:36:55;;;;;;;;;;;2.40;99.90;2.90;100949.00;;;;345027;28;90363;-91
2022/01/24 00:37:07;;;;;;;;;;;2.50;99.90;2.90;100946.00;;;;346003;28;82395;-91
2022/01/24 00:37:19;;;;;;;;;;;2.40;99.90;2.90;100950.00;;;;345674;28;91466;-91
2022/01/24 00:37:33;;;;;;;;;;;2.50;99.90;2.90;100958.00;;;;339027;28;82590;-90
2022/01/24 00:37:45;;;;;;;;;;;2.40;99.90;2.90;100951.00;;;;336165;28;90340;-90
2022/01/24 00:38:00;;;;;;;;;;;2.50;99.90;2.90;100947.00;;;;337813;28;83354;-91
2022/01/24 00:38:11;;;;;;;;;;;2.40;99.90;2.90;100951.00;;;;337385;28;90173;-90
2022/01/24 00:38:23;;;;;;;;;;;2.40;99.90;2.90;100960.00;;;;336496;28;83476;-91
2022/01/24 00:38:35;;;;;;;;;;;2.40;99.90;2.90;100954.00;;;;342888;28;92253;-90
2022/01/24 00:38:47;;;;;;;;;;;2.40;99.90;2.90;100949.00;;;;337594;28;83227;-90
2022/01/24 00:39:00;;;;;;;;;;;2.40;99.90;2.90;100955.00;;;;337053;28;89737;-90
2022/01/24 00:39:12;;;;;;;;;;;2.40;99.90;2.90;100956.00;;;;337656;28;83306;-91
2022/01/24 00:39:24;;;;;;;;;;;2.40;99.90;2.90;100948.00;;;;338038;28;91263;-91
2022/01/24 00:39:37;;;;;;;;;;;2.40;99.90;2.90;100939.00;;;;346920;28;83488;-91
2022/01/24 00:39:48;;;;;;;;;;;2.40;99.90;2.90;100956.00;;;;342908;28;90085;-91
2022/01/24 00:40:01;;;;;;;;;;;2.40;99.90;2.90;100954.00;;;;343463;28;83502;-91
2022/01/24 00:40:13;;;;;;;;;;;2.40;99.90;2.90;100952.00;;;;344334;28;91024;-91
2022/01/24 00:40:26;;;;;;;;;;;2.40;99.90;2.90;100947.00;;;;337717;28;83425;-91
2022/01/24 00:40:40;;;;;;;;;;;2.40;99.90;2.90;100952.00;;;;339768;28;90085;-91
2022/01/24 00:40:52;;;;;;;;;;;2.40;99.90;2.90;100944.00;;;;339136;28;82457;-91
2022/01/24 00:41:04;;;;;;;;;;;2.40;99.90;2.90;100947.00;;;;334802;29;91336;-91
2022/01/24 00:41:19;;;;;;;;;;;2.40;99.90;2.90;100952.00;;;;336424;28;83296;-91
2022/01/24 00:41:37;;;;;;;;;;;2.40;99.90;2.90;100947.00;;;;344355;28;90284;-91
2022/01/24 00:42:53;;;;;;;;;;;2.40;99.90;2.90;100959.00;;;;339490;28;90664;-90
2022/01/24 00:43:16;;;;;;;;;;;2.40;99.90;2.90;100950.00;;;;336535;28;83627;-91
2022/01/24 00:43:50;;;;;;;;;;;2.40;99.90;3.00;100953.00;;;;344633;28;91143;-91
2022/01/24 00:44:45;;;;;;;;;;;2.40;99.90;2.90;100950.00;;;;344722;28;83184;-91
2022/01/24 00:46:06;;;;;;;;;;;2.40;99.90;3.10;100947.00;;;;344120;28;90359;-91
2022/01/24 00:46:32;;;;;;;;;;;2.50;99.90;3.00;100952.00;;;;343349;28;83601;-91
2022/01/24 00:46:51;;;;;;;;;;;2.40;99.90;3.00;100957.00;;;;332050;29;91662;-90
2022/01/24 00:47:10;;;;;;;;;;;2.50;99.90;3.00;100957.00;;;;343294;28;82463;-90
2022/01/24 00:48:51;;;;;;;;;;;2.40;99.90;2.90;100958.00;;;;341517;28;83211;-91
2022/01/24 00:49:36;;;;;;;;;;;2.40;99.90;2.90;100966.00;;;;341787;28;83556;-90
2022/01/24 00:53:37;;;;;;;;;;;2.30;99.90;2.80;100961.00;;;;342011;28;83371;-90
2022/01/24 00:54:42;;;;;;;;;;;2.30;99.90;2.80;100943.00;;;;344259;28;90842;-91
2022/01/24 00:54:47;;;;;;;;;;;2.30;99.90;2.80;100951.00;;;;339730;28;83725;-91
2022/01/24 00:55:03;;;;;;;;;;;2.30;99.90;2.80;100960.00;;;;342847;28;91686;-91
2022/01/24 00:55:14;;;;;;;;;;;2.30;99.90;2.90;100956.00;;;;341960;28;83408;-91
2022/01/24 00:55:26;;;;;;;;;;;2.30;99.90;2.90;100950.00;;;;339945;28;92596;-90
2022/01/24 00:55:41;;;;;;;;;;;2.30;99.90;2.80;100948.00;;;;341914;28;83299;-91
2022/01/24 00:55:52;;;;;;;;;;;2.30;99.90;2.80;100955.00;;;;341536;28;91163;-90
2022/01/24 00:56:05;;;;;;;;;;;2.30;99.90;2.90;100947.00;;;;343278;28;83477;-91
2022/01/24 00:56:17;;;;;;;;;;;2.30;99.90;2.90;100960.00;;;;342910;28;91419;-90
2022/01/24 00:56:29;;;;;;;;;;;2.30;99.90;2.90;100955.00;;;;344673;28;82490;-91
2022/01/24 00:56:41;;;;;;;;;;;2.30;99.90;2.90;100954.00;;;;342800;28;91537;-91
2022/01/24 00:56:52;;;;;;;;;;;2.30;99.90;2.90;100961.00;;;;344623;28;82646;-90
2022/01/24 00:57:04;;;;;;;;;;;2.30;99.90;3.00;100958.00;;;;342824;28;91163;-91
2022/01/24 00:57:16;;;;;;;;;;;2.30;99.90;3.00;100959.00;;;;343351;28;82529;-91
2022/01/24 00:57:28;;;;;;;;;;;2.30;99.90;3.00;100961.00;;;;341033;28;92344;-91
2022/01/24 00:57:39;;;;;;;;;;;2.30;99.90;3.00;100961.00;;;;343224;28;83478;-90
2022/01/24 00:57:51;;;;;;;;;;;2.30;99.90;3.00;100960.00;;;;344205;28;91345;-90
2022/01/24 00:58:03;;;;;;;;;;;2.30;99.90;2.90;100956.00;;;;340504;28;83209;-90
2022/01/24 00:58:15;;;;;;;;;;;2.30;99.90;2.90;100958.00;;;;344089;28;88812;-90
2022/01/24 00:58:27;;;;;;;;;;;2.30;99.90;3.00;100964.00;;;;344894;28;83536;-90
2022/01/24 00:58:39;;;;;;;;;;;2.30;99.90;3.10;100962.00;;;;340237;28;90473;-91
2022/01/24 00:58:50;;;;;;;;;;;2.30;99.90;3.00;100959.00;;;;343173;28;83413;-90
2022/01/24 00:59:03;;;;;;;;;;;2.30;99.90;2.90;100959.00;;;;342924;28;88154;-91
2022/01/24 00:59:15;;;;;;;;;;;2.30;99.90;2.90;100965.00;;;;343362;28;83358;-91
2022/01/24 00:59:26;;;;;;;;;;;2.40;99.90;2.90;100961.00;;;;345380;28;91245;-90
2022/01/24 00:59:38;;;;;;;;;;;2.30;99.90;2.90;100964.00;;;;346227;28;83347;-90
2022/01/24 00:59:50;;;;;;;;;;;2.30;99.90;3.00;100969.00;;;;342992;28;91676;-90
2022/01/24 01:00:03;;;;;;;;;;;2.40;99.90;3.00;100959.00;;;;344711;28;82491;-91
2022/01/24 01:00:15;;;;;;;;;;;2.30;99.90;2.90;100965.00;;;;344221;28;90872;-90
2022/01/24 01:00:27;;;;;;;;;;;2.30;99.90;2.90;100953.00;;;;343988;28;82611;-90
2022/01/24 01:00:39;;;;;;;;;;;2.40;99.90;2.90;100962.00;;;;343613;28;90277;-90
2022/01/24 01:00:51;;;;;;;;;;;2.30;99.90;2.90;100963.00;;;;347348;28;83212;-91
2022/01/24 01:01:04;;;;;;;;;;;2.40;99.90;2.90;100964.00;;;;342901;28;92061;-91
2022/01/24 01:01:16;;;;;;;;;;;2.30;99.90;2.90;100958.00;;;;344767;28;82442;-91
2022/01/24 01:01:28;;;;;;;;;;;2.30;99.90;2.90;100964.00;;;;344013;28;91098;-90
2022/01/24 01:01:40;;;;;;;;;;;2.30;99.90;2.90;100965.00;;;;343371;28;82500;-90
2022/01/24 01:01:52;;;;;;;;;;;2.30;99.90;2.90;100956.00;;;;343921;28;91341;-90
2022/01/24 01:02:04;;;;;;;;;;;2.30;99.90;2.90;100963.00;;;;343172;28;83548;-90
2022/01/24 01:02:16;;;;;;;;;;;2.30;99.90;2.90;100963.00;;;;343022;28;90420;-90
2022/01/24 01:02:28;;;;;;;;;;;2.30;99.90;3.00;100966.00;;;;343326;28;83456;-90
2022/01/24 01:02:41;;;;;;;;;;;2.30;99.90;2.90;100955.00;;;;344236;28;90562;-90
2022/01/24 01:02:53;;;;;;;;;;;2.30;99.90;2.80;100951.00;;;;344633;28;83452;-90
2022/01/24 01:03:05;;;;;;;;;;;2.30;99.90;2.80;100946.00;;;;341564;28;91596;-91
2022/01/24 01:03:19;;;;;;;;;;;2.30;99.90;2.90;100964.00;;;;346090;28;83336;-90
2022/01/24 01:03:31;;;;;;;;;;;2.30;99.90;2.90;100954.00;;;;343670;28;92349;-91
2022/01/24 01:03:43;;;;;;;;;;;2.30;99.90;2.90;100958.00;;;;345912;28;83478;-90
2022/01/24 01:03:54;;;;;;;;;;;2.30;99.90;2.90;100956.00;;;;341502;28;91146;-90
2022/01/24 01:04:06;;;;;;;;;;;2.30;99.90;2.80;100952.00;;;;343224;28;83299;-91
2022/01/24 01:04:21;;;;;;;;;;;2.30;99.90;2.90;100958.00;;;;345527;28;91778;-91
2022/01/24 01:05:04;;;;;;;;;;;2.30;99.90;2.90;100953.00;;;;344554;28;82536;-90
2022/01/24 01:06:15;;;;;;;;;;;2.20;99.90;2.70;100958.00;;;;344117;28;90851;-90
2022/01/24 01:06:27;;;;;;;;;;;2.20;99.90;2.70;100953.00;;;;343933;28;83560;-90
2022/01/24 01:06:42;;;;;;;;;;;2.20;99.90;2.70;100950.00;;;;343505;28;91141;-91
2022/01/24 01:06:55;;;;;;;;;;;2.20;99.90;2.60;100960.00;;;;341749;28;83336;-90
2022/01/24 01:07:07;;;;;;;;;;;2.20;99.90;2.60;100955.00;;;;344118;28;91489;-91
2022/01/24 01:08:01;;;;;;;;;;;2.20;99.90;2.60;100959.00;;;;346016;28;83518;-90
2022/01/24 01:18:08;;;;;;;;;;;2.20;99.90;2.60;100948.00;;;;345871;28;83487;-90
2022/01/24 01:18:15;;;;;;;;;;;1.90;99.90;2.40;100954.00;;;;338833;28;91791;-90
2022/01/24 01:18:27;;;;;;;;;;;1.90;99.90;2.40;100959.00;;;;338877;28;83729;-90
2022/01/24 01:18:39;;;;;;;;;;;1.90;99.90;2.40;100951.00;;;;340060;28;90212;-90
2022/01/24 01:18:51;;;;;;;;;;;1.90;99.90;2.40;100960.00;;;;338025;28;83366;-91
2022/01/24 01:19:04;;;;;;;;;;;1.90;99.90;2.40;100957.00;;;;338839;28;91659;-90
2022/01/24 01:19:16;;;;;;;;;;;1.90;99.90;2.40;100951.00;;;;339239;28;82618;-91
2022/01/24 01:19:28;;;;;;;;;;;1.90;99.90;2.40;100957.00;;;;338849;28;92526;-90
2022/01/24 01:19:40;;;;;;;;;;;1.90;99.90;2.30;100954.00;;;;341956;28;82265;-89
2022/01/24 01:19:51;;;;;;;;;;;1.90;99.90;2.40;100952.00;;;;336219;28;90704;-90
2022/01/24 01:20:04;;;;;;;;;;;1.90;99.90;2.40;100962.00;;;;337939;28;83535;-90
2022/01/24 01:20:21;;;;;;;;;;;1.90;99.90;2.40;100951.00;;;;339036;28;90194;-91
2022/01/24 01:20:46;;;;;;;;;;;1.90;99.90;2.50;100964.00;;;;337900;28;83615;-91
2022/01/24 01:21:15;;;;;;;;;;;1.90;99.90;2.40;100957.00;;;;339184;28;83428;-90
2022/01/24 01:21:26;;;;;;;;;;;1.90;99.90;2.40;100953.00;;;;335741;28;91247;-90
2022/01/24 01:21:38;;;;;;;;;;;1.80;99.90;2.40;100956.00;;;;339513;28;83460;-90
2022/01/24 01:21:50;;;;;;;;;;;1.90;99.90;2.40;100954.00;;;;340090;28;92759;-91
2022/01/24 01:22:02;;;;;;;;;;;1.90;99.90;2.40;100954.00;;;;337769;28;83567;-90
2022/01/24 01:22:14;;;;;;;;;;;1.90;99.90;2.40;100953.00;;;;338813;28;90213;-91
2022/01/24 01:22:26;;;;;;;;;;;1.90;99.90;2.40;100955.00;;;;340331;28;83472;-91
2022/01/24 01:22:37;;;;;;;;;;;1.90;99.90;2.50;100958.00;;;;336240;28;91536;-90
2022/01/24 01:22:49;;;;;;;;;;;1.90;99.90;2.50;100961.00;;;;340639;28;83474;-91
2022/01/24 01:23:01;;;;;;;;;;;1.90;99.90;2.50;100955.00;;;;337595;28;91517;-91
2022/01/24 01:23:12;;;;;;;;;;;1.90;99.90;2.40;100955.00;;;;336574;28;83426;-91
2022/01/24 01:23:24;;;;;;;;;;;1.90;99.90;2.40;100954.00;;;;340046;28;91531;-90
2022/01/24 01:23:41;;;;;;;;;;;1.90;99.90;2.50;100949.00;;;;339296;28;82434;-90
2022/01/24 01:23:56;;;;;;;;;;;1.90;99.90;2.40;100956.00;;;;338651;28;91312;-90
2022/01/24 01:24:07;;;;;;;;;;;1.80;99.90;2.50;100952.00;;;;341802;28;83483;-90
2022/01/24 01:24:20;;;;;;;;;;;1.90;99.90;2.40;100955.00;;;;337459;28;90322;-90
2022/01/24 01:24:37;;;;;;;;;;;1.90;99.90;2.40;100949.00;;;;339911;28;83642;-90
2022/01/24 01:24:53;;;;;;;;;;;1.90;99.90;2.40;100946.00;;;;340206;28;90376;-91
2022/01/24 01:25:05;;;;;;;;;;;1.90;99.90;2.40;100954.00;;;;337052;28;83434;-90
2022/01/24 01:25:17;;;;;;;;;;;1.90;99.90;2.50;100949.00;;;;339969;28;91831;-90
2022/01/24 01:25:29;;;;;;;;;;;1.80;99.90;2.50;100952.00;;;;340917;28;83475;-90
2022/01/24 01:25:42;;;;;;;;;;;1.80;99.90;2.50;100949.00;;;;338857;28;91555;-90
2022/01/24 01:25:55;;;;;;;;;;;1.80;99.90;2.50;100953.00;;;;341947;28;83303;-90
2022/01/24 01:26:15;;;;;;;;;;;1.90;99.90;2.40;100948.00;;;;340054;28;92589;-91
2022/01/24 01:26:33;;;;;;;;;;;1.90;99.90;2.40;100953.00;;;;342023;28;82348;-90
2022/01/24 01:26:51;;;;;;;;;;;1.90;99.90;2.40;100949.00;;;;341033;28;89443;-90
2022/01/24 01:27:13;;;;;;;;;;;1.80;99.90;2.40;100950.00;;;;340474;28;83340;-90
2022/01/24 01:27:33;;;;;;;;;;;1.80;99.90;2.40;100953.00;;;;341265;28;91156;-90
2022/01/24 01:27:47;;;;;;;;;;;1.80;99.90;2.50;100953.00;;;;341509;28;83328;-90
2022/01/24 01:28:00;;;;;;;;;;;1.80;99.90;2.40;100949.00;;;;340151;28;91341;-90
2022/01/24 01:28:12;;;;;;;;;;;1.80;99.90;2.50;100948.00;;;;343182;28;83367;-90
2022/01/24 01:28:25;;;;;;;;;;;1.90;99.90;2.40;100948.00;;;;339935;28;91912;-90
2022/01/24 01:28:41;;;;;;;;;;;1.80;99.90;2.40;100955.00;;;;340632;28;83232;-90
2022/01/24 01:28:58;;;;;;;;;;;1.90;99.90;2.40;100948.00;;;;341330;28;91400;-90
2022/01/24 01:29:17;;;;;;;;;;;1.80;99.90;2.40;100953.00;;;;340696;28;82443;-90
2022/01/24 01:29:35;;;;;;;;;;;1.80;99.90;2.40;100952.00;;;;341410;28;90198;-91
2022/01/24 01:30:13;;;;;;;;;;;1.80;99.90;2.40;100956.00;;;;340162;28;91181;-90
2022/01/24 01:30:35;;;;;;;;;;;1.80;99.90;2.40;100952.00;;;;340792;28;83503;-90
2022/01/24 01:30:51;;;;;;;;;;;1.80;99.90;2.40;100957.00;;;;341386;28;91435;-90
2022/01/24 01:31:08;;;;;;;;;;;1.80;99.90;2.40;100948.00;;;;340635;28;83251;-90
2022/01/24 01:31:43;;;;;;;;;;;1.80;99.90;2.40;100953.00;;;;340089;28;91517;-90
2022/01/24 01:32:30;;;;;;;;;;;1.80;99.90;2.50;100953.00;;;;342722;28;92725;-90
2022/01/24 01:33:05;;;;;;;;;;;1.90;99.90;2.60;100958.00;;;;340528;28;83248;-91
2022/01/24 01:35:08;;;;;;;;;;;1.90;99.90;2.50;100957.00;;;;340493;28;83672;-91
2022/01/24 01:35:47;;;;;;;;;;;1.90;99.90;2.40;100955.00;;;;339267;28;83460;-90
2022/01/24 01:36:12;;;;;;;;;;;1.80;99.90;2.40;100956.00;;;;341505;28;91706;-90
2022/01/24 01:36:45;;;;;;;;;;;1.90;99.90;2.40;100957.00;;;;341034;28;83392;-90
2022/01/24 01:39:18;;;;;;;;;;;1.90;99.90;2.50;100960.00;;;;336061;28;91816;-90
2022/01/24 01:52:38;;;;;;;;;;;1.90;99.90;2.50;100953.00;;;;348268;27;82339;-90
2022/01/24 01:53:27;;;;;;;;;;;1.90;99.90;2.50;100954.00;;;;345566;28;86334;-90
2022/01/24 01:54:20;;;;;;;;;;;1.90;99.90;2.60;100957.00;;;;344211;28;83514;-89
2022/01/24 01:54:54;;;;;;;;;;;1.90;99.90;2.50;100964.00;;;;345601;28;82570;-89
2022/01/24 01:55:49;;;;;;;;;;;1.90;99.90;2.50;100961.00;;;;342991;28;87520;-89
2022/01/24 01:56:01;;;;;;;;;;;1.90;99.90;2.50;100952.00;;;;344424;28;83200;-89
2022/01/24 01:56:12;;;;;;;;;;;1.90;99.90;2.50;100952.00;;;;344328;28;87274;-90
2022/01/24 01:56:24;;;;;;;;;;;1.90;99.90;2.50;100954.00;;;;344513;28;83382;-89
2022/01/24 01:56:36;;;;;;;;;;;1.90;99.90;2.50;100948.00;;;;345737;28;87003;-90
2022/01/24 01:56:48;;;;;;;;;;;1.90;99.90;2.50;100949.00;;;;347076;28;83437;-89
2022/01/24 01:57:00;;;;;;;;;;;1.90;99.90;2.40;100954.00;;;;347083;28;85626;-90
2022/01/24 01:57:13;;;;;;;;;;;1.90;99.90;2.40;100952.00;;;;345716;28;82407;-90
2022/01/24 01:57:25;;;;;;;;;;;1.90;99.90;2.40;100958.00;;;;343924;28;86901;-90
2022/01/24 01:57:38;;;;;;;;;;;1.90;99.90;2.40;100945.00;;;;344049;28;82523;-90
2022/01/24 01:57:49;;;;;;;;;;;1.90;99.90;2.40;100948.00;;;;344391;28;85624;-90
2022/01/24 01:58:03;;;;;;;;;;;1.90;99.90;2.40;100952.00;;;;345654;28;83504;-90
2022/01/24 01:58:17;;;;;;;;;;;1.90;99.90;2.40;100947.00;;;;345809;28;87056;-90
2022/01/24 01:58:29;;;;;;;;;;;1.90;99.90;2.40;100940.00;;;;346261;28;85667;-90
2022/01/24 01:58:41;;;;;;;;;;;1.90;99.90;2.40;100951.00;;;;344152;28;85803;-90
2022/01/24 01:58:52;;;;;;;;;;;1.90;99.90;2.50;100943.00;;;;345885;28;83250;-89
2022/01/24 01:59:05;;;;;;;;;;;1.90;99.90;2.40;100950.00;;;;346753;28;86591;-89
2022/01/24 01:59:17;;;;;;;;;;;1.90;99.90;2.40;100942.00;;;;345875;28;82421;-90
2022/01/24 01:59:29;;;;;;;;;;;1.90;99.90;2.40;100936.00;;;;347034;28;87656;-89
2022/01/24 01:59:41;;;;;;;;;;;1.90;99.90;2.40;100944.00;;;;343098;28;83333;-89
2022/01/24 01:59:52;;;;;;;;;;;1.90;99.90;2.40;100935.00;;;;345815;28;86149;-90
2022/01/24 02:00:06;;;;;;;;;;;1.90;99.90;2.40;100946.00;;;;348521;27;83399;-89
2022/01/24 02:00:17;;;;;;;;;;;1.90;99.90;2.40;100939.00;;;;344406;28;87135;-89
2022/01/24 02:00:29;;;;;;;;;;;1.90;99.90;2.40;100937.00;;;;346724;28;83571;-90
2022/01/24 02:00:43;;;;;;;;;;;1.90;99.90;2.40;100936.00;;;;344019;28;87407;-89
2022/01/24 02:00:57;;;;;;;;;;;1.90;99.90;2.40;100940.00;;;;344360;28;83404;-89
2022/01/24 02:01:08;;;;;;;;;;;1.90;99.90;2.40;100943.00;;;;347136;28;87368;-90
2022/01/24 02:01:20;;;;;;;;;;;1.90;99.90;2.40;100942.00;;;;345655;28;83479;-89
2022/01/24 02:01:32;;;;;;;;;;;1.90;99.90;2.40;100934.00;;;;344552;28;86225;-89
2022/01/24 02:01:44;;;;;;;;;;;1.90;99.90;2.40;100937.00;;;;343141;28;82488;-89
2022/01/24 02:01:56;;;;;;;;;;;1.90;99.90;2.40;100944.00;;;;345800;28;87066;-90
2022/01/24 02:02:08;;;;;;;;;;;1.80;99.90;2.40;100945.00;;;;345732;28;83535;-89
2022/01/24 02:02:20;;;;;;;;;;;1.90;99.90;2.40;100944.00;;;;345811;28;87472;-89